地図

経路データ

SID SEASON NUMBER BASIN SUBBASIN NAME ISO_TIME NATURE LAT LON WMO_WIND WMO_PRES WMO_AGENCY TRACK_TYPE DIST2LAND LANDFALL IFLAG USA_AGENCY USA_ATCF_ID USA_LAT USA_LON USA_RECORD USA_STATUS USA_WIND USA_PRES USA_SSHS USA_R34_NE USA_R34_SE USA_R34_SW USA_R34_NW USA_R50_NE USA_R50_SE USA_R50_SW USA_R50_NW USA_R64_NE USA_R64_SE USA_R64_SW USA_R64_NW USA_POCI USA_ROCI USA_RMW USA_EYE TOKYO_LAT TOKYO_LON TOKYO_GRADE TOKYO_WIND TOKYO_PRES TOKYO_R50_DIR TOKYO_R50_LONG TOKYO_R50_SHORT TOKYO_R30_DIR TOKYO_R30_LONG TOKYO_R30_SHORT TOKYO_LAND CMA_LAT CMA_LON CMA_CAT CMA_WIND CMA_PRES HKO_LAT HKO_LON HKO_CAT HKO_WIND HKO_PRES NEWDELHI_LAT NEWDELHI_LON NEWDELHI_GRADE NEWDELHI_WIND NEWDELHI_PRES NEWDELHI_CI NEWDELHI_DP NEWDELHI_POCI REUNION_LAT REUNION_LON REUNION_TYPE REUNION_WIND REUNION_PRES REUNION_TNUM REUNION_CI REUNION_RMW REUNION_R34_NE REUNION_R34_SE REUNION_R34_SW REUNION_R34_NW REUNION_R50_NE REUNION_R50_SE REUNION_R50_SW REUNION_R50_NW REUNION_R64_NE REUNION_R64_SE REUNION_R64_SW REUNION_R64_NW BOM_LAT BOM_LON BOM_TYPE BOM_WIND BOM_PRES BOM_TNUM BOM_CI BOM_RMW BOM_R34_NE BOM_R34_SE BOM_R34_SW BOM_R34_NW BOM_R50_NE BOM_R50_SE BOM_R50_SW BOM_R50_NW BOM_R64_NE BOM_R64_SE BOM_R64_SW BOM_R64_NW BOM_ROCI BOM_POCI BOM_EYE BOM_POS_METHOD BOM_PRES_METHOD NADI_LAT NADI_LON NADI_CAT NADI_WIND NADI_PRES WELLINGTON_LAT WELLINGTON_LON WELLINGTON_WIND WELLINGTON_PRES DS824_LAT DS824_LON DS824_STAGE DS824_WIND DS824_PRES TD9636_LAT TD9636_LON TD9636_STAGE TD9636_WIND TD9636_PRES TD9635_LAT TD9635_LON TD9635_WIND TD9635_PRES TD9635_ROCI NEUMANN_LAT NEUMANN_LON NEUMANN_CLASS NEUMANN_WIND NEUMANN_PRES MLC_LAT MLC_LON MLC_CLASS MLC_WIND MLC_PRES USA_GUST BOM_GUST BOM_GUST_PER REUNION_GUST REUNION_GUST_PER USA_SEAHGT USA_SEARAD_NE USA_SEARAD_SE USA_SEARAD_SW USA_SEARAD_NW STORM_SPEED STORM_DIR
1884039S14078 1884 4 SI MM NOT_NAMED 1884-02-07 18:00:00 NR -14.0000 78.0000 main 2247 2188 __________O___ -1 -14.0000 78.0000 7 13 255
1884039S14078 1884 4 SI MM NOT_NAMED 1884-02-07 21:00:00 NR -14.1681 77.3706 main 2188 2124 __________P___ -1 -14.1681 77.3706 7 13 254
1884039S14078 1884 4 SI MM NOT_NAMED 1884-02-08 00:00:00 NR -14.3483 76.7327 main 2114 2045 __________P___ -1 -14.3483 76.7327 7 13 253
1884039S14078 1884 4 SI MM NOT_NAMED 1884-02-08 03:00:00 NR -14.5544 76.0786 main 2041 1963 __________P___ -1 -14.5544 76.0786 7 14 251
1884039S14078 1884 4 SI MM NOT_NAMED 1884-02-08 06:00:00 NR -14.8000 75.4000 main 1963 1881 __________O___ -1 -14.8000 75.4000 7 14 248
1884039S14078 1884 4 SI MM NOT_NAMED 1884-02-08 09:00:00 NR -15.0963 74.6938 main 1881 1799 __________P___ -1 -15.0963 74.6938 7 15 245
1884039S14078 1884 4 SI MM NOT_NAMED 1884-02-08 12:00:00 NR -15.4452 73.9769 main 1799 1713 __________P___ -1 -15.4452 73.9769 7 16 241
1884039S14078 1884 4 SI MM NOT_NAMED 1884-02-08 15:00:00 NR -15.8464 73.2716 main 1713 1624 __________P___ -1 -15.8464 73.2716 7 16 237
1884039S14078 1884 4 SI MM NOT_NAMED 1884-02-08 18:00:00 NR -16.3000 72.6000 main 1624 1546 __________O___ -1 -16.3000 72.6000 7 16 233
1884039S14078 1884 4 SI MM NOT_NAMED 1884-02-08 21:00:00 NR -16.8281 71.9215 main 1536 1456 __________P___ -1 -16.8281 71.9215 7 17 229
1884039S14078 1884 4 SI MM NOT_NAMED 1884-02-09 00:00:00 NR -17.4002 71.2872 main 1456 1391 __________P___ -1 -17.4002 71.2872 7 16 225
1884039S14078 1884 4 SI MM NOT_NAMED 1884-02-09 03:00:00 NR -17.9722 70.7341 main 1378 1326 __________P___ -1 -17.9722 70.7341 7 15 220
1884039S14078 1884 4 SI MM NOT_NAMED 1884-02-09 06:00:00 NR -18.5000 70.3000 main 1326 1287 __________O___ -1 -18.5000 70.3000 7 12 216
1884039S14078 1884 4 SI MM NOT_NAMED 1884-02-09 09:00:00 NR -18.9120 70.0097 main 1287 1260 __________P___ -1 -18.9120 70.0097 7 9 209
1884039S14078 1884 4 SI MM NOT_NAMED 1884-02-09 12:00:00 NR -19.2787 69.8403 main 1260 1256 __________P___ -1 -19.2787 69.8403 7 8 199
1884039S14078 1884 4 SI MM NOT_NAMED 1884-02-09 15:00:00 NR -19.6311 69.7509 main 1256 1242 __________P___ -1 -19.6311 69.7509 7 7 190
1884039S14078 1884 4 SI MM NOT_NAMED 1884-02-09 18:00:00 NR -20.0000 69.7000 main 1242 1229 __________O___ -1 -20.0000 69.7000 7 8 191
1884039S14078 1884 4 SI MM NOT_NAMED 1884-02-09 21:00:00 NR -20.4121 69.5931 main 1229 1218 __________P___ -1 -20.4121 69.5931 7 9 192
1884039S14078 1884 4 SI MM NOT_NAMED 1884-02-10 00:00:00 NR -20.8474 69.5181 main 1219 1219 __________P___ -1 -20.8474 69.5181 7 9 187
1884039S14078 1884 4 SI MM NOT_NAMED 1884-02-10 03:00:00 NR -21.3090 69.4840 main 1220 1220 __________P___ -1 -21.3090 69.4840 7 10 181
1884039S14078 1884 4 SI MM NOT_NAMED 1884-02-10 06:00:00 NR -21.8000 69.5000 main 1225 1225 __________O___ -1 -21.8000 69.5000 7 10 176
1884039S14078 1884 4 SI MM NOT_NAMED 1884-02-10 09:00:00 NR -22.3253 69.5622 main 1242 1242 __________P___ -1 -22.3253 69.5622 7 11 171
1884039S14078 1884 4 SI MM NOT_NAMED 1884-02-10 12:00:00 NR -22.8775 69.6747 main 1263 1263 __________P___ -1 -22.8775 69.6747 7 11 168
1884039S14078 1884 4 SI MM NOT_NAMED 1884-02-10 15:00:00 NR -23.4409 69.8250 main 1285 1285 __________P___ -1 -23.4409 69.8250 7 12 165
1884039S14078 1884 4 SI MM NOT_NAMED 1884-02-10 18:00:00 NR -24.0000 70.0000 main 1321 1321 __________O___ -1 -24.0000 70.0000 7 11 164
1884039S14078 1884 4 SI MM NOT_NAMED 1884-02-10 21:00:00 NR -24.5281 70.1707 main 1357 1357 __________P___ -1 -24.5281 70.1707 7 11 163
1884039S14078 1884 4 SI MM NOT_NAMED 1884-02-11 00:00:00 NR -25.0499 70.3632 main 1394 1394 __________P___ -1 -25.0499 70.3632 7 11 161
1884039S14078 1884 4 SI MM NOT_NAMED 1884-02-11 03:00:00 NR -25.5718 70.5741 main 1436 1436 __________P___ -1 -25.5718 70.5741 7 11 159
1884039S14078 1884 4 SI MM NOT_NAMED 1884-02-11 06:00:00 NR -26.1000 70.8000 main 1475 1475 __________O___ -1 -26.1000 70.8000 7 12 159
1884039S14078 1884 4 SI MM NOT_NAMED 1884-02-11 09:00:00 NR -26.6712 71.0355 main 1520 1520 __________P___ -1 -26.6712 71.0355 7 12 159
1884039S14078 1884 4 SI MM NOT_NAMED 1884-02-11 12:00:00 NR -27.2449 71.2847 main 1570 1570 __________P___ -1 -27.2449 71.2847 7 12 158
1884039S14078 1884 4 SI MM NOT_NAMED 1884-02-11 15:00:00 NR -27.7962 71.5417 main 1617 1617 __________P___ -1 -27.7962 71.5417 7 12 157
1884039S14078 1884 4 SI MM NOT_NAMED 1884-02-11 18:00:00 NR -28.3000 71.8000 main 1670 1670 __________O___ -1 -28.3000 71.8000 7 10 154
1884039S14078 1884 4 SI MM NOT_NAMED 1884-02-11 21:00:00 NR -28.7386 72.0542 main 1717 1717 __________P___ -1 -28.7386 72.0542 7 9 152
1884039S14078 1884 4 SI MM NOT_NAMED 1884-02-12 00:00:00 NR -29.1227 72.3045 main 1755 1755 __________P___ -1 -29.1227 72.3045 7 9 149
1884039S14078 1884 4 SI MM NOT_NAMED 1884-02-12 03:00:00 NR -29.4706 72.5524 main 1803 1803 __________P___ -1 -29.4706 72.5524 7 8 147
1884039S14078 1884 4 SI MM NOT_NAMED 1884-02-12 06:00:00 NR -29.8000 72.8000 main 1837 __________O___ -1 -29.8000 72.8000 7 8 147

IBTrACS Databaseについて

本データベースは、米国NOAAが公開する1842年以降の世界の熱帯低気圧のベストトラックデータアーカイブInternational Best Track Archive for Climate Stewardship (IBTrACS)を、ウェブで閲覧しやすい形式に変換したものです。

最終更新日:2021-11-26